createdAt,value
2019-01-30T05:00:34.125Z,0
2019-01-30T05:04:02.001Z,0
2019-01-30T05:07:29.855Z,0
2019-01-30T05:10:58.721Z,0
2019-01-30T05:14:26.588Z,0
2019-01-30T05:17:54.461Z,0
2019-01-30T05:21:22.316Z,0
2019-01-30T05:24:51.180Z,0
2019-01-30T05:28:19.050Z,0
2019-01-30T05:31:46.901Z,0
2019-01-30T05:35:16.762Z,0
2019-01-30T05:38:44.623Z,0
2019-01-30T05:42:12.473Z,0
2019-01-30T05:45:40.349Z,0
2019-01-30T05:49:08.210Z,0
2019-01-30T05:52:36.117Z,0
2019-01-30T05:56:04.015Z,0
2019-01-30T05:59:31.883Z,0
2019-01-30T06:03:00.739Z,0
2019-01-30T06:06:28.589Z,0
2019-01-30T06:09:57.447Z,0
2019-01-30T06:13:25.314Z,0
2019-01-30T06:16:53.173Z,0
2019-01-30T06:20:21.037Z,1
2019-01-30T06:23:48.908Z,1
2019-01-30T06:27:16.772Z,2
2019-01-30T06:30:44.634Z,3
2019-01-30T06:34:12.499Z,5
2019-01-30T06:37:40.369Z,9
2019-01-30T06:41:08.217Z,15
2019-01-30T06:44:37.022Z,24
2019-01-30T06:48:04.891Z,40
2019-01-30T06:51:33.737Z,60
2019-01-30T06:55:01.606Z,82
2019-01-30T06:58:29.471Z,105
2019-01-30T07:01:57.321Z,132
2019-01-30T07:05:25.193Z,159
2019-01-30T07:08:54.051Z,190
2019-01-30T07:12:21.896Z,217
2019-01-30T07:15:49.766Z,247
2019-01-30T07:19:17.637Z,289
2019-01-30T07:22:45.486Z,332
2019-01-30T07:26:13.353Z,376
2019-01-30T07:29:41.221Z,414
2019-01-30T07:33:09.072Z,461
2019-01-30T07:36:37.933Z,511
2019-01-30T07:40:05.801Z,598
2019-01-30T07:43:33.653Z,713
2019-01-30T07:47:01.516Z,867
2019-01-30T07:50:29.383Z,1042
2019-01-30T07:53:58.226Z,1185
2019-01-30T07:57:26.100Z,1258
2019-01-30T08:00:53.977Z,1330
2019-01-30T08:04:21.835Z,1309
2019-01-30T08:07:49.699Z,1284
2019-01-30T08:11:17.565Z,1344
2019-01-30T08:14:46.412Z,1533
2019-01-30T08:18:14.272Z,1747
2019-01-30T08:21:42.140Z,1897
2019-01-30T08:25:10.066Z,2008
2019-01-30T08:28:37.964Z,1945
2019-01-30T08:32:05.762Z,2056
2019-01-30T08:35:34.574Z,2417
2019-01-30T08:39:02.434Z,2574
2019-01-30T08:42:30.306Z,2732
2019-01-30T08:45:58.153Z,2651
2019-01-30T08:49:26.023Z,2517
2019-01-30T08:52:53.887Z,2611
2019-01-30T08:56:21.742Z,2816
2019-01-30T08:59:49.613Z,3055
2019-01-30T09:03:18.474Z,3057
2019-01-30T09:06:46.328Z,3151
2019-01-30T09:10:15.179Z,3234
2019-01-30T09:13:43.047Z,3124
2019-01-30T09:17:11.900Z,3079
2019-01-30T09:20:39.768Z,3106
2019-01-30T09:24:07.642Z,3235
2019-01-30T09:27:35.494Z,3259
2019-01-30T09:31:03.366Z,3352
2019-01-30T09:34:31.235Z,3408
2019-01-30T09:37:59.108Z,3471
2019-01-30T09:41:26.957Z,3568
2019-01-30T09:44:54.832Z,3425
2019-01-30T09:48:22.702Z,3728
2019-01-30T09:51:50.552Z,4224
2019-01-30T09:55:18.415Z,4605
2019-01-30T09:58:46.280Z,4523
2019-01-30T10:02:14.132Z,3874
2019-01-30T10:05:42.005Z,3804
2019-01-30T10:09:09.865Z,4456
2019-01-30T10:12:37.730Z,5304
2019-01-30T10:16:05.585Z,4844
2019-01-30T10:19:33.453Z,6027
2019-01-30T10:23:02.311Z,6951
2019-01-30T10:26:30.162Z,7371
2019-01-30T10:30:00.004Z,7833
2019-01-30T10:33:27.866Z,7168
2019-01-30T10:36:56.718Z,6840
2019-01-30T10:40:24.570Z,6707
2019-01-30T10:43:52.437Z,6310
2019-01-30T10:47:20.289Z,6340
2019-01-30T10:50:48.160Z,5412
2019-01-30T10:54:16.018Z,5038
2019-01-30T10:57:43.882Z,5664
2019-01-30T11:01:11.757Z,6081
2019-01-30T11:04:40.620Z,6023
2019-01-30T11:08:08.488Z,6336
2019-01-30T11:11:36.342Z,6533
2019-01-30T11:15:05.196Z,7340
2019-01-30T11:18:33.054Z,8513
2019-01-30T11:22:01.000Z,8406
2019-01-30T11:25:28.784Z,8430
2019-01-30T11:28:56.653Z,8775
2019-01-30T11:32:24.524Z,10054
2019-01-30T11:35:52.406Z,11620
2019-01-30T11:39:20.269Z,14724
2019-01-30T11:42:48.121Z,15893
2019-01-30T11:46:15.991Z,29720
2019-01-30T11:49:44.850Z,28680
2019-01-30T11:53:12.706Z,27056
2019-01-30T11:56:40.574Z,46640
2019-01-30T12:00:08.446Z,46576
2019-01-30T12:03:37.343Z,37704
2019-01-30T12:07:05.196Z,34992
2019-01-30T12:10:34.057Z,35160
2019-01-30T12:14:01.926Z,41080
2019-01-30T12:17:29.776Z,33696
2019-01-30T12:20:57.646Z,33624
2019-01-30T12:24:25.519Z,43680
2019-01-30T12:27:54.367Z,39080
2019-01-30T12:31:22.243Z,40728
2019-01-30T12:34:50.117Z,41176
2019-01-30T12:38:17.961Z,34184
2019-01-30T12:41:46.825Z,36984
2019-01-30T12:45:15.678Z,36344
2019-01-30T12:48:43.528Z,31056
2019-01-30T12:52:12.387Z,20096
2019-01-30T12:55:41.247Z,23672
2019-01-30T12:59:10.100Z,21040
2019-01-30T13:02:37.958Z,21392
2019-01-30T13:06:05.820Z,8101
2019-01-30T13:09:33.681Z,20792
2019-01-30T13:13:01.529Z,6831
2019-01-30T13:16:29.391Z,5318
2019-01-30T13:19:57.259Z,4641
2019-01-30T13:23:25.108Z,4319
2019-01-30T13:26:52.973Z,3427
2019-01-30T13:30:20.841Z,3357
2019-01-30T13:33:48.685Z,3356
2019-01-30T13:37:16.549Z,6198
2019-01-30T13:40:44.424Z,11943
2019-01-30T13:44:12.272Z,13370
2019-01-30T13:47:40.147Z,17120
2019-01-30T13:51:08.034Z,8751
2019-01-30T13:54:36.860Z,7306
2019-01-30T13:58:04.751Z,6934
2019-01-30T14:01:32.608Z,6640
2019-01-30T14:05:01.438Z,6967
2019-01-30T14:08:29.317Z,6951
2019-01-30T14:11:57.199Z,6894
2019-01-30T14:15:25.031Z,6620
2019-01-30T14:18:52.904Z,5724
2019-01-30T14:22:20.774Z,4860
2019-01-30T14:25:48.632Z,4277
2019-01-30T14:29:16.484Z,3846
2019-01-30T14:32:44.349Z,3412
2019-01-30T14:36:12.257Z,3079
2019-01-30T14:39:40.166Z,2809
2019-01-30T14:43:07.996Z,2549
2019-01-30T14:46:35.863Z,2283
2019-01-30T14:50:03.772Z,2065
2019-01-30T14:53:31.625Z,1880
2019-01-30T14:56:59.453Z,1726
2019-01-30T15:00:27.321Z,1590
2019-01-30T15:03:55.194Z,1447
2019-01-30T15:07:28.960Z,1298
2019-01-30T15:10:56.863Z,1128
2019-01-30T15:14:24.724Z,962
2019-01-30T15:17:52.579Z,794
2019-01-30T15:21:21.467Z,641
2019-01-30T15:24:49.296Z,523
2019-01-30T15:28:17.151Z,428
2019-01-30T15:31:45.018Z,339
2019-01-30T15:35:12.879Z,257
2019-01-30T15:38:40.739Z,194
2019-01-30T15:42:08.609Z,147
2019-01-30T15:45:36.482Z,113
2019-01-30T15:49:06.513Z,82
2019-01-30T15:52:34.173Z,58
2019-01-30T15:56:02.057Z,39
2019-01-30T15:59:29.913Z,25
2019-01-30T16:02:57.762Z,14
2019-01-30T16:06:25.636Z,8
2019-01-30T16:09:53.499Z,4
2019-01-30T16:13:21.350Z,2
2019-01-30T16:16:49.219Z,1
2019-01-30T16:20:17.080Z,1
2019-01-30T16:23:45.971Z,1
2019-01-30T16:27:13.795Z,0
2019-01-30T16:30:42.652Z,0
2019-01-30T16:34:10.507Z,0
2019-01-30T16:37:38.383Z,0
2019-01-30T16:41:06.254Z,0
2019-01-30T16:44:34.104Z,0
2019-01-30T16:48:01.969Z,0
2019-01-30T16:51:29.841Z,0
2019-01-30T16:54:57.698Z,0
2019-01-30T16:58:25.561Z,0
2019-01-30T17:01:53.434Z,0
2019-01-30T17:05:21.288Z,0
2019-01-30T17:08:50.235Z,0
2019-01-30T17:12:18.095Z,0
2019-01-30T17:15:45.961Z,0
2019-01-30T17:19:13.812Z,0
2019-01-30T17:22:41.685Z,0
2019-01-30T17:26:09.554Z,0
2019-01-30T17:29:38.397Z,0
2019-01-30T17:33:06.269Z,0
2019-01-30T17:36:34.143Z,0
2019-01-30T17:40:03.983Z,0
2019-01-30T17:43:31.843Z,0
2019-01-30T17:47:00.713Z,0
2019-01-30T17:50:28.561Z,0
2019-01-30T17:53:57.420Z,0
2019-01-30T17:57:25.290Z,0
2019-01-30T18:00:53.161Z,0
2019-01-30T18:04:21.002Z,0
2019-01-30T18:07:48.864Z,0
2019-01-30T18:11:16.733Z,0
2019-01-30T18:14:44.581Z,0
2019-01-30T18:18:12.453Z,0
2019-01-30T18:21:40.318Z,0
2019-01-30T18:25:08.178Z,0
2019-01-30T18:28:36.038Z,0
2019-01-30T18:32:03.896Z,0
2019-01-30T18:35:31.744Z,0
2019-01-30T18:38:59.622Z,0
2019-01-30T18:42:27.498Z,0
2019-01-30T18:45:55.390Z,0
2019-01-30T18:49:23.236Z,0
2019-01-30T18:52:51.104Z,0
2019-01-30T18:56:19.005Z,0
2019-01-30T18:59:46.888Z,0
2019-01-30T19:03:14.765Z,0
2019-01-30T19:06:51.882Z,0
2019-01-30T19:10:16.618Z,0
2019-01-30T19:13:44.494Z,0
2019-01-30T19:17:12.363Z,0
2019-01-30T19:20:42.222Z,0
2019-01-30T19:24:10.069Z,0
2019-01-30T19:27:37.933Z,0
2019-01-30T19:31:05.785Z,0
2019-01-30T19:34:34.653Z,0
2019-01-30T19:38:02.517Z,0
2019-01-30T19:41:30.386Z,0
2019-01-30T19:44:58.239Z,0
2019-01-30T19:48:26.109Z,0
2019-01-30T19:51:53.981Z,0
2019-01-30T19:55:21.836Z,0
2019-01-30T19:58:49.728Z,0
2019-01-30T20:02:17.674Z,0
2019-01-30T20:05:45.541Z,0
2019-01-30T20:09:13.420Z,0
2019-01-30T20:12:41.299Z,0
2019-01-30T20:16:09.155Z,0
2019-01-30T20:19:37.019Z,0
2019-01-30T20:23:04.888Z,0
2019-01-30T20:26:32.750Z,0
2019-01-30T20:30:00.606Z,0
2019-01-30T20:33:28.475Z,0
2019-01-30T20:36:56.436Z,0
2019-01-30T20:40:25.282Z,0
2019-01-30T20:43:53.153Z,0
2019-01-30T20:47:21.019Z,0
2019-01-30T20:50:49.870Z,0
2019-01-30T20:54:17.742Z,0
2019-01-30T20:57:45.610Z,0
2019-01-30T21:01:13.459Z,0
2019-01-30T21:04:42.328Z,0
2019-01-30T21:08:10.202Z,0
2019-01-30T21:11:38.047Z,0
2019-01-30T21:15:05.914Z,0
2019-01-30T21:18:34.778Z,0
2019-01-30T21:22:02.631Z,0
2019-01-30T21:25:30.498Z,0
2019-01-30T21:28:58.370Z,0
2019-01-30T21:32:26.223Z,0
2019-01-30T21:35:54.087Z,0
2019-01-30T21:39:21.951Z,0
2019-01-30T21:42:49.819Z,0
2019-01-30T21:46:17.675Z,0
2019-01-30T21:49:46.545Z,0
2019-01-30T21:53:14.415Z,0
2019-01-30T21:56:42.266Z,0
2019-01-30T22:00:10.130Z,0
2019-01-30T22:03:38.000Z,0
2019-01-30T22:07:05.849Z,0
2019-01-30T22:10:33.715Z,0
2019-01-30T22:14:01.587Z,0
2019-01-30T22:17:29.435Z,0
2019-01-30T22:20:57.305Z,0
2019-01-30T22:24:25.200Z,0
2019-01-30T22:27:53.053Z,0
2019-01-30T22:31:20.915Z,0
2019-01-30T22:34:48.788Z,0
2019-01-30T22:38:16.639Z,0
2019-01-30T22:41:44.512Z,0
2019-01-30T22:45:12.384Z,0
2019-01-30T22:48:40.338Z,0
2019-01-30T22:52:08.193Z,0
2019-01-30T22:55:37.054Z,0
2019-01-30T22:59:04.912Z,0
